Time;durP1;ratioP1;P1;durP2;ratioP2;P2;SDS_P1;SDS_P2;PMS_P1;PMS_P2;Temp;Humidity;BMP_temperature;BMP_pressure;BME280_temperature;BME280_humidity;BME280_pressure;Samples;Min_cycle;Max_cycle;Signal;HPM_P1;HPM_P2
2022/12/11 00:00:44;;;;;;;;;;;;;;;-142.75;100.00;78216.28;4987668;28;20101;-63
2022/12/11 00:03:09;;;;;;;40.90;20.43;;;;;;;-142.75;100.00;78224.16;5002100;28;20314;-63
2022/12/11 00:05:38;;;;;;;44.92;20.42;;;;;;;-142.75;100.00;78212.34;5002446;28;20025;-63
2022/12/11 00:08:04;;;;;;;43.53;20.60;;;;;;;-142.75;100.00;78237.94;5001924;28;20067;-63
2022/12/11 00:10:29;;;;;;;42.55;21.25;;;;;;;-142.75;100.00;78230.06;4988109;28;20286;-63
2022/12/11 00:12:55;;;;;;;46.05;22.10;;;;;;;-142.75;100.00;78239.91;4997272;28;20341;-63
2022/12/11 00:15:20;;;;;;;45.00;21.27;;;;;;;-142.75;100.00;78212.34;4987756;28;20326;-63
2022/12/11 00:17:46;;;;;;;47.97;20.65;;;;;;;-142.75;100.00;78222.19;4990139;28;20326;-64
2022/12/11 00:20:11;;;;;;;42.75;21.00;;;;;;;-142.75;100.00;78208.41;4990386;28;20428;-64
2022/12/11 00:22:37;;;;;;;51.15;21.35;;;;;;;-142.75;100.00;78220.22;4988961;28;20515;-63
2022/12/11 00:25:03;;;;;;;43.45;20.65;;;;;;;-142.75;100.00;78210.38;4986825;28;20189;-63
2022/12/11 00:27:28;;;;;;;50.45;21.63;;;;;;;-142.75;100.00;78216.28;4986921;28;20352;-63
2022/12/11 00:29:54;;;;;;;43.38;20.75;;;;;;;-142.75;100.00;78216.28;4994265;28;20318;-64
2022/12/11 00:32:19;;;;;;;51.70;22.52;;;;;;;-142.75;100.00;78220.22;4982345;28;20286;-63
2022/12/11 00:34:45;;;;;;;48.35;22.88;;;;;;;-142.75;100.00;78208.41;4982063;28;20326;-62
2022/12/11 00:37:10;;;;;;;40.40;20.63;;;;;;;-142.75;100.00;78200.53;4986104;28;20033;-61
2022/12/11 00:39:38;;;;;;;50.22;21.85;;;;;;;-142.75;100.00;78204.47;4996840;28;20395;-61
2022/12/11 00:42:05;;;;;;;48.43;21.23;;;;;;;-142.75;100.00;78192.66;4985298;28;20029;-62
2022/12/11 00:44:30;;;;;;;44.40;20.30;;;;;;;-142.75;100.00;78198.56;4982147;28;20534;-62
2022/12/11 00:46:56;;;;;;;44.90;20.33;;;;;;;-142.75;100.00;78200.53;4998282;28;20036;-61
2022/12/11 00:49:21;;;;;;;40.97;19.88;;;;;;;-142.75;100.00;78196.59;5001671;28;20388;-62
2022/12/11 00:51:47;;;;;;;37.53;17.63;;;;;;;-142.75;100.00;78216.28;4998074;28;20467;-62
2022/12/11 00:54:12;;;;;;;50.83;20.67;;;;;;;-142.75;100.00;78204.47;4993396;28;20325;-63
2022/12/11 00:56:38;;;;;;;40.53;19.20;;;;;;;-142.75;100.00;78210.38;4997399;28;20325;-62
2022/12/11 00:59:03;;;;;;;40.20;18.23;;;;;;;-142.75;100.00;78212.34;5001372;28;20379;-62
2022/12/11 01:01:29;;;;;;;35.85;18.15;;;;;;;-142.75;100.00;78208.41;4992992;28;20228;-62
2022/12/11 01:03:54;;;;;;;32.03;16.00;;;;;;;-142.75;100.00;78216.28;4988766;28;20325;-63
2022/12/11 01:06:25;;;;;;;33.42;16.13;;;;;;;-142.75;100.00;78214.31;4995745;28;20392;-63
2022/12/11 01:11:37;;;;;;;35.90;16.17;;;;;;;-142.75;100.00;78180.81;4967838;28;20218;-65
2022/12/11 01:14:04;;;;;;;31.45;15.73;;;;;;;-142.75;100.00;78178.84;4983878;28;20938;-63
2022/12/11 01:16:29;;;;;;;29.63;14.63;;;;;;;-142.75;100.00;78188.72;4981526;28;20021;-64
2022/12/11 01:18:56;;;;;;;29.60;15.45;;;;;;;-142.75;100.00;78194.63;4992351;28;20339;-63
2022/12/11 01:21:21;;;;;;;30.43;13.60;;;;;;;-142.75;100.00;78208.41;4993126;28;20549;-64
2022/12/11 01:23:49;;;;;;;26.33;13.07;;;;;;;-142.75;100.00;78196.59;4990352;28;20032;-65
2022/12/11 01:26:15;;;;;;;24.37;13.00;;;;;;;-142.75;100.00;78198.56;4997567;28;20201;-64
2022/12/11 01:28:41;;;;;;;31.45;11.60;;;;;;;-142.75;100.00;78198.56;4993555;28;20179;-64
2022/12/11 01:31:11;;;;;;;24.38;12.52;;;;;;;-142.75;100.00;78188.72;5004834;28;20833;-64
2022/12/11 01:33:38;;;;;;;26.20;12.50;;;;;;;-142.75;100.00;78190.69;4986974;28;20025;-63
2022/12/11 01:36:09;;;;;;;22.80;12.63;;;;;;;-142.75;100.00;78184.78;4983290;28;20775;-64
2022/12/11 01:38:35;;;;;;;22.50;11.13;;;;;;;-142.75;100.00;78196.59;4995207;28;20025;-63
2022/12/11 01:41:00;;;;;;;31.95;12.65;;;;;;;-142.75;100.00;78190.69;5000461;28;20356;-64
2022/12/11 01:43:26;;;;;;;23.20;11.63;;;;;;;-142.75;100.00;78202.50;4988603;28;20325;-63
2022/12/11 01:45:51;;;;;;;23.17;12.23;;;;;;;-142.75;100.00;78196.59;4990156;28;20321;-64
2022/12/11 01:48:24;;;;;;;23.42;10.95;;;;;;;-142.75;100.00;78182.81;4995790;28;20195;-65
2022/12/11 01:50:53;;;;;;;27.03;12.17;;;;;;;-142.75;100.00;78182.81;4994138;28;20638;-64
2022/12/11 01:53:39;;;;;;;21.67;10.63;;;;;;;-142.75;100.00;78176.88;4984257;28;20013;-64
2022/12/11 01:56:07;;;;;;;23.33;11.80;;;;;;;-142.75;100.00;78165.06;4995076;28;20158;-63
2022/12/11 01:58:37;;;;;;;20.57;10.13;;;;;;;-142.75;100.00;78161.13;5002885;28;20028;-64
2022/12/11 02:01:03;;;;;;;22.60;11.47;;;;;;;-142.75;100.00;78155.22;4984123;28;20021;-64
2022/12/11 02:03:28;;;;;;;25.98;11.27;;;;;;;-142.75;100.00;78141.44;4986956;28;20055;-64
2022/12/11 02:06:01;;;;;;;25.70;11.90;;;;;;;-142.75;100.00;78161.13;4996443;28;20320;-65
2022/12/11 02:08:27;;;;;;;24.93;12.50;;;;;;;-142.75;100.00;78159.16;5002405;28;20047;-64
2022/12/11 02:10:55;;;;;;;;;;;;;;;-142.75;100.00;78141.44;4994972;28;20634;-63
2022/12/11 02:13:29;;;;;;;23.13;10.17;;;;;;;-142.75;100.00;78147.34;4985780;28;19924;-63
2022/12/11 02:16:04;;;;;;;20.53;10.33;;;;;;;-142.75;100.00;78163.09;4997053;28;20032;-62
2022/12/11 02:18:37;;;;;;;19.90;10.30;;;;;;;-142.75;100.00;78153.25;4984045;28;20097;-64
2022/12/11 02:21:22;;;;;;;23.53;11.30;;;;;;;-142.75;100.00;78159.16;4986721;28;20098;-64
2022/12/11 02:24:16;;;;;;;23.03;10.63;;;;;;;-142.75;100.00;78163.09;4989545;28;20055;-64
2022/12/11 02:26:56;;;;;;;23.67;11.17;;;;;;;-142.75;100.00;78161.13;4987864;28;20025;-63
2022/12/11 02:29:29;;;;;;;22.70;10.60;;;;;;;-142.75;100.00;78151.28;5000588;28;20561;-62
2022/12/11 02:32:04;;;;;;;22.37;10.60;;;;;;;-142.75;100.00;78153.25;4994504;28;20052;-63
2022/12/11 02:34:50;;;;;;;25.30;12.13;;;;;;;-142.75;100.00;78174.91;4990846;28;20580;-64
2022/12/11 02:37:21;;;;;;;21.77;10.63;;;;;;;-142.75;100.00;78161.13;4992223;28;20113;-63
2022/12/11 02:39:51;;;;;;;24.83;10.73;;;;;;;-142.75;100.00;78149.31;4988180;28;20546;-64
2022/12/11 02:42:18;;;;;;;23.10;10.97;;;;;;;-142.75;100.00;78137.50;4995839;28;20051;-64
2022/12/11 02:44:46;;;;;;;25.00;12.13;;;;;;;-142.75;100.00;78163.09;4990914;28;20079;-64
2022/12/11 02:47:14;;;;;;;30.17;13.33;;;;;;;-142.75;100.00;78165.06;4999036;28;20086;-64
2022/12/11 02:49:42;;;;;;;24.07;12.40;;;;;;;-142.75;100.00;78161.13;4989885;28;20025;-64
2022/12/11 02:52:11;;;;;;;27.53;12.90;;;;;;;-142.75;100.00;78172.94;4984423;28;20558;-64
2022/12/11 02:54:39;;;;;;;29.57;13.80;;;;;;;-142.75;100.00;78167.03;4988499;28;20016;-63
2022/12/11 02:57:10;;;;;;;26.13;12.23;;;;;;;-142.75;100.00;78149.31;4983541;28;20206;-63
2022/12/11 02:59:40;;;;;;;29.23;13.33;;;;;;;-142.75;100.00;78157.19;4991605;28;20151;-64
2022/12/11 03:02:06;;;;;;;26.00;13.53;;;;;;;-142.75;100.00;78167.03;4999693;28;20024;-64
2022/12/11 03:04:33;;;;;;;;;;;;;;;-142.75;100.00;78161.13;4995035;28;20024;-63
2022/12/11 03:07:11;;;;;;;29.67;12.82;;;;;;;-142.75;100.00;78184.78;5001318;28;19908;-63
2022/12/11 03:09:41;;;;;;;30.60;14.60;;;;;;;-142.75;100.00;78180.81;4979101;28;20041;-63
2022/12/11 03:12:10;;;;;;;34.63;15.40;;;;;;;-142.75;100.00;78176.88;4992490;28;20032;-64
2022/12/11 03:14:38;;;;;;;33.27;15.77;;;;;;;-142.75;100.00;78188.72;4995128;28;20024;-64
2022/12/11 03:17:33;;;;;;;30.57;14.67;;;;;;;-142.75;100.00;78186.75;4998168;28;20029;-64
2022/12/11 03:20:11;;;;;;;34.03;15.60;;;;;;;-142.75;100.00;78192.66;4982824;28;20557;-63
2022/12/11 03:22:46;;;;;;;37.90;17.07;;;;;;;-142.75;100.00;78188.72;4984549;28;20057;-64
2022/12/11 03:25:19;;;;;;;34.00;16.40;;;;;;;-142.75;100.00;78208.41;4986093;28;20143;-64
2022/12/11 03:27:56;;;;;;;34.40;15.53;;;;;;;-142.75;100.00;78196.59;5001761;28;20616;-64
2022/12/11 03:30:24;;;;;;;32.27;15.77;;;;;;;-142.75;100.00;78188.72;4990741;28;20084;-64
2022/12/11 03:32:54;;;;;;;36.20;16.73;;;;;;;-142.75;100.00;78196.59;4999006;28;20521;-63
2022/12/11 03:35:31;;;;;;;34.33;17.10;;;;;;;-142.75;100.00;78188.72;4984300;28;20060;-64
2022/12/11 03:38:04;;;;;;;44.43;17.73;;;;;;;-142.75;100.00;78172.94;4996275;28;20149;-63
2022/12/11 03:40:32;;;;;;;33.90;15.50;;;;;;;-142.75;100.00;78159.16;4982438;28;20033;-64
2022/12/11 03:42:59;;;;;;;38.67;18.30;;;;;;;-142.75;100.00;78180.81;5000107;28;20131;-64
2022/12/11 03:45:27;;;;;;;45.40;21.10;;;;;;;-142.75;100.00;78169.00;4996154;28;20071;-64
2022/12/11 03:47:56;;;;;;;39.10;18.40;;;;;;;-142.75;100.00;78192.66;4980825;28;20584;-63
2022/12/11 03:50:24;;;;;;;39.93;17.43;;;;;;;-142.75;100.00;78196.59;4989538;28;20024;-63
2022/12/11 03:52:52;;;;;;;33.50;16.47;;;;;;;-142.75;100.00;78186.75;4988337;28;20041;-63
2022/12/11 03:55:21;;;;;;;32.70;15.33;;;;;;;-142.75;100.00;78182.81;4995971;28;20124;-63
2022/12/11 03:57:47;;;;;;;28.37;13.63;;;;;;;-142.75;100.00;78176.88;5002820;28;20521;-63
2022/12/11 04:00:17;;;;;;;30.08;14.32;;;;;;;-142.75;100.00;78180.81;4989958;28;20035;-63
2022/12/11 04:02:43;;;;;;;31.50;14.23;;;;;;;-142.75;100.00;78172.94;5002307;28;20037;-65
2022/12/11 04:05:10;;;;;;;28.87;14.10;;;;;;;-142.75;100.00;78151.28;4983317;28;20017;-63
2022/12/11 04:07:36;;;;;;;34.73;14.60;;;;;;;-142.75;100.00;78157.19;4991904;28;20016;-63
2022/12/11 04:10:03;;;;;;;33.60;15.98;;;;;;;-142.75;100.00;78157.19;4983088;28;20082;-63
2022/12/11 04:12:29;;;;;;;29.53;13.83;;;;;;;-142.75;100.00;78172.94;4990053;28;20039;-63
2022/12/11 04:15:00;;;;;;;29.70;13.95;;;;;;;-142.75;100.00;78161.13;4999679;28;20369;-64
2022/12/11 04:25:39;;;;;;;32.23;14.53;;;;;;;-142.75;100.00;78163.09;4995624;28;20639;-63
2022/12/11 04:28:04;;;;;;;29.58;15.45;;;;;;;-142.75;100.00;78155.22;4989279;28;20060;-63
2022/12/11 04:30:30;;;;;;;31.75;13.90;;;;;;;-142.75;100.00;78178.84;4994535;28;20338;-63
2022/12/11 04:32:55;;;;;;;29.42;13.98;;;;;;;-142.75;100.00;78182.81;4982061;28;20403;-63
2022/12/11 04:35:22;;;;;;;31.25;12.60;;;;;;;-142.75;100.00;78180.81;4992312;28;20306;-63
2022/12/11 04:37:47;;;;;;;29.17;14.40;;;;;;;-142.75;100.00;78165.06;4988485;28;20044;-63
2022/12/11 04:40:16;;;;;;;30.27;13.43;;;;;;;-142.75;100.00;78161.13;4986055;28;20345;-64
2022/12/11 04:42:41;;;;;;;28.60;13.80;;;;;;;-142.75;100.00;78182.81;4988818;28;20025;-63
2022/12/11 04:45:08;;;;;;;25.15;12.30;;;;;;;-142.75;100.00;78157.19;4985542;28;20305;-63
2022/12/11 04:47:35;;;;;;;27.17;12.63;;;;;;;-142.75;100.00;78147.34;5001748;28;20029;-64
2022/12/11 04:50:01;;;;;;;24.00;12.13;;;;;;;-142.75;100.00;78169.00;4998722;28;20526;-63
2022/12/11 04:52:27;;;;;;;;;;;;;;;-142.75;100.00;78143.41;4988069;28;20021;-63
2022/12/11 04:54:52;;;;;;;27.23;12.77;;;;;;;-142.75;100.00;78157.19;5001438;28;20212;-65
2022/12/11 04:57:20;;;;;;;24.67;13.10;;;;;;;-142.75;100.00;78178.84;5001555;28;20356;-64
2022/12/11 04:59:46;;;;;;;25.87;11.53;;;;;;;-142.75;100.00;78153.25;5003776;28;20047;-63
2022/12/11 05:02:11;;;;;;;24.88;11.45;;;;;;;-142.75;100.00;78172.94;5002528;28;20336;-63
2022/12/11 05:04:37;;;;;;;27.45;12.45;;;;;;;-142.75;100.00;78180.81;4993944;28;20306;-63
2022/12/11 05:07:03;;;;;;;22.63;10.80;;;;;;;-142.75;100.00;78186.75;5003458;28;20280;-64
2022/12/11 05:09:28;;;;;;;26.88;11.93;;;;;;;-142.75;100.00;78194.63;4993850;28;20190;-63
2022/12/11 05:11:54;;;;;;;27.02;11.23;;;;;;;-142.75;100.00;78186.75;5000656;28;20419;-64
2022/12/11 05:14:20;;;;;;;23.33;11.30;;;;;;;-142.75;100.00;78202.50;4986932;28;20206;-63
2022/12/11 05:16:45;;;;;;;24.50;11.40;;;;;;;-142.75;100.00;78192.66;5003261;28;20302;-64
2022/12/11 05:19:11;;;;;;;23.90;10.45;;;;;;;-142.75;100.00;78184.78;4989097;28;20316;-63
2022/12/11 05:21:36;;;;;;;23.30;10.95;;;;;;;-142.75;100.00;78176.88;4996023;28;20574;-63
2022/12/11 05:24:03;;;;;;;20.42;11.30;;;;;;;-142.75;100.00;78192.66;4993284;28;20087;-63
2022/12/11 05:26:28;;;;;;;19.70;10.60;;;;;;;-142.75;100.00;78184.78;4983338;28;20043;-63
2022/12/11 05:28:54;;;;;;;22.13;10.27;;;;;;;-142.75;100.00;78165.06;4990964;28;20353;-63
2022/12/11 05:31:23;;;;;;;22.45;10.68;;;;;;;-142.75;100.00;78172.94;5004875;28;20353;-63
2022/12/11 05:33:49;;;;;;;23.33;12.23;;;;;;;-142.75;100.00;78159.16;5002422;28;20541;-63
2022/12/11 05:36:17;;;;;;;28.83;16.17;;;;;;;-142.75;100.00;78161.13;4990519;28;20020;-63
2022/12/11 05:38:43;;;;;;;29.47;14.93;;;;;;;-142.75;100.00;78165.06;5002056;28;20017;-63
2022/12/11 05:41:12;;;;;;;21.63;10.95;;;;;;;-142.75;100.00;78184.78;4998184;28;20021;-63
2022/12/11 05:43:38;;;;;;;48.57;28.40;;;;;;;-142.75;100.00;78157.19;5003118;28;20028;-63
2022/12/11 05:46:12;;;;;;;22.92;12.00;;;;;;;-142.75;100.00;78143.41;4998458;28;20504;-63
2022/12/11 05:48:38;;;;;;;24.47;10.40;;;;;;;-142.75;100.00;78131.59;4994009;28;20029;-63
2022/12/11 05:51:05;;;;;;;24.57;11.00;;;;;;;-142.75;100.00;78129.63;4993590;28;20039;-63
2022/12/11 05:53:31;;;;;;;24.57;11.43;;;;;;;-142.75;100.00;78141.44;4993974;28;20033;-64
2022/12/11 05:56:05;;;;;;;22.15;11.05;;;;;;;-142.75;100.00;78151.28;4995139;28;20023;-63
2022/12/11 05:58:31;;;;;;;25.57;11.13;;;;;;;-142.75;100.00;78151.28;5001390;28;20025;-63
2022/12/11 06:00:57;;;;;;;23.47;11.47;;;;;;;-142.75;100.00;78153.25;4989839;28;20684;-63
2022/12/11 06:03:23;;;;;;;26.17;11.50;;;;;;;-142.75;100.00;78157.19;4983541;28;20041;-63
2022/12/11 06:05:48;;;;;;;28.20;12.68;;;;;;;-142.75;100.00;78174.91;5002691;28;20248;-63
2022/12/11 06:08:14;;;;;;;25.00;11.70;;;;;;;-142.75;100.00;78174.91;4995643;28;20334;-63
2022/12/11 06:10:49;;;;;;;26.00;12.15;;;;;;;-142.75;100.00;78180.81;4988133;28;20378;-63
2022/12/11 06:13:15;;;;;;;25.33;11.87;;;;;;;-142.75;100.00;78182.81;5003006;28;20025;-63
2022/12/11 06:15:41;;;;;;;26.20;12.48;;;;;;;-142.75;100.00;78174.91;5000811;28;20139;-63
2022/12/11 06:18:07;;;;;;;24.33;12.27;;;;;;;-142.75;100.00;78196.59;4984373;28;20526;-63
2022/12/11 06:20:34;;;;;;;26.02;11.52;;;;;;;-142.75;100.00;78192.66;4992541;28;20039;-63
2022/12/11 06:23:00;;;;;;;25.07;11.23;;;;;;;-142.75;100.00;78180.81;5003696;28;20024;-63
2022/12/11 06:25:27;;;;;;;18.97;9.70;;;;;;;-142.75;100.00;78192.66;5003579;28;20021;-64
2022/12/11 06:27:52;;;;;;;25.67;12.00;;;;;;;-142.75;100.00;78200.53;4983980;28;20566;-63
2022/12/11 06:30:18;;;;;;;24.48;11.75;;;;;;;-142.75;100.00;78184.78;4983829;28;20083;-64
2022/12/11 06:32:44;;;;;;;28.48;12.50;;;;;;;-142.75;100.00;78186.75;4983865;28;20441;-64
2022/12/11 06:35:10;;;;;;;24.95;11.55;;;;;;;-142.75;100.00;78196.59;4991963;28;20259;-64
2022/12/11 06:37:37;;;;;;;22.23;10.93;;;;;;;-142.75;100.00;78180.81;4983728;28;20079;-64
2022/12/11 06:40:07;;;;;;;23.03;11.03;;;;;;;-142.75;100.00;78192.66;4991201;28;20106;-64
2022/12/11 06:42:33;;;;;;;21.93;10.40;;;;;;;-142.75;100.00;78186.75;4996253;28;20031;-64
2022/12/11 06:44:59;;;;;;;26.17;10.85;;;;;;;-142.75;100.00;78190.69;4995753;28;20285;-64
2022/12/11 06:47:26;;;;;;;25.98;11.32;;;;;;;-142.75;100.00;78186.75;4997350;28;20191;-64
2022/12/11 06:49:52;;;;;;;27.20;11.43;;;;;;;-142.75;100.00;78192.66;4993411;28;20109;-63
2022/12/11 06:52:18;;;;;;;24.93;9.70;;;;;;;-142.75;100.00;78192.66;4989142;28;20057;-63
2022/12/11 06:54:44;;;;;;;26.05;10.68;;;;;;;-142.75;100.00;78206.44;4992528;28;20349;-64
2022/12/11 06:57:09;;;;;;;21.70;10.07;;;;;;;-142.75;100.00;78194.63;4985256;28;20127;-63
2022/12/11 06:59:35;;;;;;;21.65;10.07;;;;;;;-142.75;100.00;78194.63;4992019;28;20352;-63
2022/12/11 07:02:00;;;;;;;24.65;9.95;;;;;;;-142.75;100.00;78178.84;5001334;28;20426;-63
2022/12/11 07:04:26;;;;;;;22.73;10.20;;;;;;;-142.75;100.00;78192.66;4993187;28;20394;-63
2022/12/11 07:06:52;;;;;;;25.50;10.93;;;;;;;-142.75;100.00;78180.81;4984807;28;20480;-63
2022/12/11 07:09:18;;;;;;;;;;;;;;;-142.75;100.00;78182.81;4978967;28;20064;-63
2022/12/11 07:11:44;;;;;;;20.27;9.30;;;;;;;-142.75;100.00;78196.59;4999918;28;20054;-63
2022/12/11 07:14:09;;;;;;;22.38;9.82;;;;;;;-142.75;100.00;78196.59;4986661;28;20407;-64
2022/12/11 07:16:35;;;;;;;23.33;10.25;;;;;;;-142.75;100.00;78184.78;4999269;28;20358;-63
2022/12/11 07:19:01;;;;;;;20.65;10.90;;;;;;;-142.75;100.00;78188.72;4997480;28;20201;-64
2022/12/11 07:21:26;;;;;;;24.95;11.75;;;;;;;-142.75;100.00;78226.13;4995103;28;20185;-63
2022/12/11 07:23:52;;;;;;;26.92;12.07;;;;;;;-142.75;100.00;78202.50;5002792;28;20028;-63
2022/12/11 07:26:21;;;;;;;28.33;13.90;;;;;;;-142.75;100.00;78204.47;5002689;28;20356;-64
2022/12/11 07:28:46;;;;;;;26.30;14.50;;;;;;;-142.75;100.00;78196.59;4988178;28;20135;-63
2022/12/11 07:31:15;;;;;;;57.75;21.45;;;;;;;-142.75;100.00;78196.59;4989562;28;20325;-64
2022/12/11 07:33:41;;;;;;;28.73;13.73;;;;;;;-142.75;100.00;78190.69;4989527;28;20029;-64
2022/12/11 07:36:09;;;;;;;31.77;15.17;;;;;;;-142.75;100.00;78196.59;4993830;28;20101;-63
2022/12/11 07:38:35;;;;;;;29.33;14.23;;;;;;;-142.75;100.00;78186.75;4990518;28;20051;-63
2022/12/11 07:41:04;;;;;;;;;;;;;;;-142.75;100.00;78182.81;4983312;28;20013;-64
2022/12/11 07:43:31;;;;;;;30.00;13.43;;;;;;;-142.75;100.00;78198.56;4996723;28;19912;-64
2022/12/11 07:46:13;;;;;;;;;;;;;;;-142.75;100.00;78192.66;4988127;28;20021;-63
2022/12/11 07:48:41;;;;;;;32.60;14.60;;;;;;;-142.75;100.00;78208.41;4998778;28;19917;-63
2022/12/11 07:51:25;;;;;;;34.67;15.23;;;;;;;-142.75;100.00;78212.34;4984989;28;20040;-65
2022/12/11 07:53:52;;;;;;;31.87;15.17;;;;;;;-142.75;100.00;78206.44;4964940;28;20095;-63
2022/12/11 07:56:18;;;;;;;27.80;13.57;;;;;;;-142.75;100.00;78200.53;5000634;28;20024;-64
2022/12/11 07:58:44;;;;;;;34.10;14.57;;;;;;;-142.75;100.00;78204.47;4994411;28;20330;-63
2022/12/11 08:01:15;;;;;;;25.48;12.82;;;;;;;-142.75;100.00;78204.47;4999093;28;20050;-64
2022/12/11 08:03:41;;;;;;;27.10;12.57;;;;;;;-142.75;100.00;78190.69;4990318;28;20131;-63
2022/12/11 08:06:07;;;;;;;26.88;12.75;;;;;;;-142.75;100.00;78192.66;4993522;28;20302;-64
2022/12/11 08:08:33;;;;;;;25.92;12.43;;;;;;;-142.75;100.00;78184.78;4994875;28;20054;-63
2022/12/11 08:11:05;;;;;;;28.40;13.25;;;;;;;-142.75;100.00;78194.63;4998149;28;20362;-63
2022/12/11 08:13:31;;;;;;;26.20;12.87;;;;;;;-142.75;100.00;78186.75;4994361;28;20082;-63
2022/12/11 08:15:57;;;;;;;27.40;13.70;;;;;;;-142.75;100.00;78182.81;5001884;28;20059;-63
2022/12/11 08:18:23;;;;;;;24.25;13.02;;;;;;;-142.75;100.00;78184.78;5002097;28;20296;-62
2022/12/11 08:20:48;;;;;;;25.13;12.65;;;;;;;-142.75;100.00;78180.81;4994194;28;20136;-63
2022/12/11 08:23:14;;;;;;;28.40;13.18;;;;;;;-142.75;100.00;78174.91;4990395;28;20260;-62
2022/12/11 08:25:39;;;;;;;25.92;11.63;;;;;;;-142.75;100.00;78174.91;4990678;28;20356;-63
2022/12/11 08:28:05;;;;;;;28.00;12.52;;;;;;;-142.75;100.00;78182.81;4989537;28;20377;-63
2022/12/11 08:30:31;;;;;;;32.35;13.13;;;;;;;-142.75;100.00;78178.84;4987377;28;20091;-63
2022/12/11 08:32:58;;;;;;;28.58;13.60;;;;;;;-142.75;100.00;78180.81;4988807;28;20045;-63
2022/12/11 08:35:24;;;;;;;27.87;13.13;;;;;;;-142.75;100.00;78192.66;4995412;28;20029;-63
2022/12/11 08:37:49;;;;;;;26.45;13.35;;;;;;;-142.75;100.00;78196.59;5005914;28;20324;-64
2022/12/11 08:40:15;;;;;;;25.33;12.45;;;;;;;-142.75;100.00;78176.88;4997051;28;20129;-63
2022/12/11 08:42:41;;;;;;;32.10;14.07;;;;;;;-142.75;100.00;78169.00;4992074;28;20329;-63
2022/12/11 08:45:06;;;;;;;25.70;12.75;;;;;;;-142.75;100.00;78165.06;5003611;28;20251;-63
2022/12/11 08:47:32;;;;;;;30.65;13.63;;;;;;;-142.75;100.00;78165.06;4985953;28;20029;-64
2022/12/11 08:49:57;;;;;;;27.58;13.35;;;;;;;-142.75;100.00;78165.06;4985944;28;20021;-63
2022/12/11 08:52:23;;;;;;;30.35;12.95;;;;;;;-142.75;100.00;78159.16;4991903;28;20401;-63
2022/12/11 08:54:48;;;;;;;30.45;13.90;;;;;;;-142.75;100.00;78157.19;4987183;28;20455;-63
2022/12/11 08:57:14;;;;;;;29.02;13.15;;;;;;;-142.75;100.00;78157.19;4988322;28;20325;-63
2022/12/11 08:59:40;;;;;;;26.67;13.38;;;;;;;-142.75;100.00;78170.97;4985636;28;20380;-66
2022/12/11 09:02:06;;;;;;;29.75;13.57;;;;;;;-142.75;100.00;78161.13;4993821;28;20050;-65
2022/12/11 09:04:31;;;;;;;27.52;12.52;;;;;;;-142.75;100.00;78176.88;4987252;28;20342;-63
2022/12/11 09:06:57;;;;;;;30.00;13.70;;;;;;;-142.75;100.00;78169.00;5003569;28;20336;-63
2022/12/11 09:09:22;;;;;;;29.58;12.65;;;;;;;-142.75;100.00;78161.13;4983847;28;20187;-63
2022/12/11 09:11:48;;;;;;;29.77;13.30;;;;;;;-142.75;100.00;78153.25;5002148;28;20028;-63
2022/12/11 09:14:15;;;;;;;29.63;14.40;;;;;;;-142.75;100.00;78155.22;4987770;28;20066;-63
2022/12/11 09:16:41;;;;;;;28.57;14.13;;;;;;;-142.75;100.00;78149.31;4993878;28;20024;-62
2022/12/11 09:19:10;;;;;;;34.58;15.98;;;;;;;-142.75;100.00;78147.34;4993768;28;20293;-63
2022/12/11 09:21:36;;;;;;;31.60;14.53;;;;;;;-142.75;100.00;78155.22;4996276;28;20024;-62
2022/12/11 09:24:01;;;;;;;32.35;14.38;;;;;;;-142.75;100.00;78143.41;4987828;28;20333;-63
2022/12/11 09:26:28;;;;;;;35.58;15.57;;;;;;;-142.75;100.00;78147.34;4985785;28;20407;-63
2022/12/11 09:28:54;;;;;;;34.27;16.30;;;;;;;-142.75;100.00;78149.31;4997664;28;20071;-63
2022/12/11 09:31:26;;;;;;;31.10;16.48;;;;;;;-142.75;100.00;78151.28;4986360;28;20021;-63
2022/12/11 09:33:55;;;;;;;34.03;15.63;;;;;;;-142.75;100.00;78149.31;4991682;28;20029;-63
2022/12/11 09:36:22;;;;;;;36.07;16.43;;;;;;;-142.75;100.00;78153.25;4988712;28;20029;-63
2022/12/11 09:38:48;;;;;;;29.67;13.73;;;;;;;-142.75;100.00;78157.19;4992821;28;20129;-63
2022/12/11 09:41:16;;;;;;;39.08;17.25;;;;;;;-142.75;100.00;78157.19;4997443;28;20020;-63
2022/12/11 09:44:04;;;;;;;36.93;16.50;;;;;;;-142.75;100.00;78145.38;4991235;28;20564;-63
2022/12/11 09:46:32;;;;;;;36.73;17.00;;;;;;;-142.75;100.00;78153.25;4986953;28;20067;-63
2022/12/11 09:48:57;;;;;;;34.97;15.17;;;;;;;-142.75;100.00;78157.19;4991052;28;20047;-63
2022/12/11 09:51:28;;;;;;;41.83;16.42;;;;;;;-142.75;100.00;78149.31;4993498;28;20360;-63
2022/12/11 09:53:58;;;;;;;43.20;17.73;;;;;;;-142.75;100.00;78143.41;4998669;28;20033;-63
2022/12/11 09:56:41;;;;;;;36.00;14.90;;;;;;;-142.75;100.00;78141.44;4996695;28;20563;-63
2022/12/11 09:59:30;;;;;;;35.40;15.47;;;;;;;-142.75;100.00;78141.44;4992020;28;20059;-63
2022/12/11 10:02:22;;;;;;;45.87;19.37;;;;;;;-142.75;100.00;78155.22;5004265;28;20036;-62
2022/12/11 10:04:58;;;;;;;57.43;23.27;;;;;;;-142.75;100.00;78149.31;4994926;28;20043;-63
2022/12/11 10:07:45;;;;;;;65.25;26.73;;;;;;;-142.75;100.00;78139.47;4992184;28;20020;-63
2022/12/11 10:10:29;;;;;;;57.88;23.73;;;;;;;-142.75;100.00;78178.84;4989637;28;20139;-63
2022/12/11 10:13:02;;;;;;;40.13;17.20;;;;;;;-142.75;100.00;78161.13;4998143;28;20040;-65
2022/12/11 10:15:30;;;;;;;37.30;16.63;;;;;;;-142.75;100.00;78153.25;4997545;28;20032;-64
2022/12/11 10:17:58;;;;;;;43.37;18.80;;;;;;;-142.75;100.00;78137.50;5002579;28;20554;-65
2022/12/11 10:20:30;;;;;;;44.87;18.37;;;;;;;-142.75;100.00;78133.56;4988740;28;20021;-64
2022/12/11 10:22:57;;;;;;;42.40;16.90;;;;;;;-142.75;100.00;78125.69;4996972;28;20106;-64
2022/12/11 10:25:35;;;;;;;36.30;16.43;;;;;;;-142.75;100.00;78113.88;4990353;28;20058;-64
2022/12/11 10:28:11;;;;;;;34.60;16.93;;;;;;;-142.75;100.00;78121.75;4998198;28;20051;-64
2022/12/11 10:30:43;;;;;;;37.53;16.33;;;;;;;-142.75;100.00;78125.69;4998940;28;20028;-63
2022/12/11 10:33:22;;;;;;;41.90;17.00;;;;;;;-142.75;100.00;78137.50;5004901;28;20373;-62
2022/12/11 10:35:53;;;;;;;40.33;16.47;;;;;;;-142.75;100.00;78123.72;4990412;28;20032;-63
2022/12/11 10:38:27;;;;;;;34.43;15.87;;;;;;;-142.75;100.00;78121.75;5003486;28;20044;-63
2022/12/11 10:40:59;;;;;;;34.10;15.10;;;;;;;-142.75;100.00;78109.94;4989263;28;20649;-63
2022/12/11 10:43:52;;;;;;;50.33;23.50;;;;;;;-142.75;100.00;78119.78;4963926;28;20087;-63
2022/12/11 10:46:23;;;;;;;37.97;16.70;;;;;;;-142.75;100.00;78121.75;4983748;28;20068;-63
2022/12/11 10:48:52;;;;;;;32.87;14.90;;;;;;;-142.75;100.00;78106.00;4996056;28;20538;-62
2022/12/11 10:51:21;;;;;;;33.37;15.50;;;;;;;-142.75;100.00;78092.22;4996541;28;20853;-63
2022/12/11 10:53:52;;;;;;;40.40;18.20;;;;;;;-142.75;100.00;78107.97;5003458;28;20572;-63
2022/12/11 10:56:28;;;;;;;45.67;18.07;;;;;;;-142.75;100.00;78106.00;4991397;28;20028;-63
2022/12/11 10:58:55;;;;;;;39.57;17.93;;;;;;;-142.75;100.00;78106.00;5003655;28;20101;-63
2022/12/11 11:01:22;;;;;;;40.10;16.53;;;;;;;-142.75;100.00;78096.16;4991070;28;20047;-63
2022/12/11 11:04:12;;;;;;;35.63;16.90;;;;;;;-142.75;100.00;78084.34;4983226;28;20028;-63
2022/12/11 11:06:38;;;;;;;34.17;16.87;;;;;;;-142.75;100.00;78090.25;4996081;28;20110;-63
2022/12/11 11:09:03;;;;;;;45.15;17.35;;;;;;;-142.75;100.00;78100.09;4987415;28;20256;-63
2022/12/11 11:11:32;;;;;;;39.80;18.05;;;;;;;-142.75;100.00;78090.25;5000216;28;20206;-63
2022/12/11 11:14:12;;;;;;;41.07;17.33;;;;;;;-142.75;100.00;78078.44;5003237;28;20039;-64